Portada
METAR-TAF:

METAR-TAF

Aeroports :

Nassau, Bahames

latitud: 25-03N, longitud: 077-28W, altitud: 3 m

Observació

L'informe es va fer fa 1 hora i 33 minuts, a les 10:00 UTC
Vent 1 kt amb direcció variable
Temperatura 25°C
Humitat 89%
Pressió 1016 hPa
Visibilitat 10 km o més
Escasses núvols a una alçada de 2500 ft
Núvols disperses a una alçada de 3000 ft

METAR: MYNN 251000Z VRB01KT 9999 FEW025 SCT030 25/23 A3000

Hora: 07:33 (11:33 UTC)

Pronòstic

L'informe es va fer fa 7 hores i 3 minuts, a les 04:30 UTC
Pronòstic vàlid del 25 a les 06 UTC al 26 a les 06 UTC
Vent 2 kt amb direcció variable
Visibilitat 10 km o més
Escasses núvols a una alçada de 2500 ft
Evolucionant progressivament
l' 25 a les 12 UTC al 25 a les 14 UTC
Vent 6 kt del Est/Sud-Est
Visibilitat 10 km o més
Escasses núvols a una alçada de 1500 ft, Cumulonimbus.
Núvols disperses a una alçada de 2500 ft

TAF: MYNN 250430Z 2506/2606 VRB02KT 9999 FEW025 BECMG 2512/2514 11006KT 9999 FEW015CB SCT025

Observacions i pronòstics meteorològics de més de 4000 aeroports (METAR i TAF).

Les estacions disponibles són els punts grocs i vermells al mapa.

Posi el ratolí al punt desitjat per veure el nom de l'estació.

Feu clic per veure les observacions i els pronòstics meteorològics.

Per canviar el mapa: feu clic els botons verds amb una creu de color negre per apropar; al botó verd amb un guió per allunyar la imatge; o en les fletxes verdes per a mapes adjacents.


METAR-TAF: